createdAt,value
2023-02-04T00:02:00.151Z,9.21
2023-02-04T00:04:26.641Z,9.19
2023-02-04T00:06:53.269Z,9.38
2023-02-04T00:09:19.722Z,9.65
2023-02-04T00:11:46.282Z,9.45
2023-02-04T00:14:12.907Z,9.27
2023-02-04T00:16:39.442Z,9.38
2023-02-04T00:19:05.938Z,9.57
2023-02-04T00:21:32.473Z,9.55
2023-02-04T00:23:59.090Z,9.76
2023-02-04T00:26:25.577Z,9.44
2023-02-04T00:28:52.054Z,9.27
2023-02-04T00:31:18.669Z,9.76
2023-02-04T00:33:45.225Z,8.85
2023-02-04T00:36:11.951Z,9.02
2023-02-04T00:38:38.445Z,8.92
2023-02-04T00:41:06.490Z,9.31
2023-02-04T00:43:33.006Z,8.86
2023-02-04T00:45:59.673Z,9.02
2023-02-04T00:48:26.897Z,9.04
2023-02-04T00:50:54.094Z,8.99
2023-02-04T00:53:20.600Z,9.66
2023-02-04T00:55:47.145Z,9.81
2023-02-04T00:58:13.766Z,9.32
2023-02-04T01:00:40.447Z,9.72
2023-02-04T01:03:07.171Z,9.44
2023-02-04T01:05:33.953Z,9.66
2023-02-04T01:08:00.531Z,9.50
2023-02-04T01:10:27.170Z,9.63
2023-02-04T01:12:53.884Z,9.52
2023-02-04T01:15:20.412Z,9.27
2023-02-04T01:17:47.114Z,9.05
2023-02-04T01:20:13.629Z,9.09
2023-02-04T01:22:40.271Z,8.85
2023-02-04T01:25:07.411Z,8.82
2023-02-04T01:27:33.911Z,9.19
2023-02-04T01:30:00.580Z,9.06
2023-02-04T01:32:27.119Z,9.00
2023-02-04T01:34:53.965Z,8.75
2023-02-04T01:37:21.132Z,9.22
2023-02-04T01:39:47.678Z,8.91
2023-02-04T01:42:14.555Z,9.17
2023-02-04T01:44:41.256Z,8.77
2023-02-04T01:47:07.902Z,8.49
2023-02-04T01:49:34.600Z,8.93
2023-02-04T01:52:02.279Z,9.15
2023-02-04T01:54:28.958Z,9.19
2023-02-04T01:56:55.712Z,8.37
2023-02-04T01:59:22.934Z,8.66
2023-02-04T02:01:53.706Z,8.42
2023-02-04T02:04:28.464Z,8.29
2023-02-04T02:06:58.680Z,8.69
2023-02-04T02:09:29.806Z,8.17
2023-02-04T02:11:56.660Z,8.44
2023-02-04T02:14:23.900Z,8.21
2023-02-04T02:16:50.469Z,8.41
2023-02-04T02:19:22.404Z,8.79
2023-02-04T02:22:28.051Z,9.29
2023-02-04T02:24:54.560Z,8.62
2023-02-04T02:27:22.158Z,8.96
2023-02-04T02:29:48.932Z,9.08
2023-02-04T02:32:15.721Z,8.89
2023-02-04T02:34:42.986Z,8.81
2023-02-04T02:37:09.531Z,9.44
2023-02-04T02:39:38.439Z,9.36
2023-02-04T02:42:05.128Z,9.49
2023-02-04T02:44:32.311Z,9.13
2023-02-04T02:46:59.042Z,9.41
2023-02-04T02:49:26.542Z,9.21
2023-02-04T02:51:53.445Z,9.34
2023-02-04T02:54:24.328Z,9.07
2023-02-04T02:56:51.706Z,8.68
2023-02-04T02:59:18.747Z,9.28
2023-02-04T03:01:48.260Z,9.36
2023-02-04T03:04:15.618Z,9.21
2023-02-04T03:06:42.187Z,9.25
2023-02-04T03:09:08.900Z,9.36
2023-02-04T03:11:36.422Z,9.62
2023-02-04T03:14:04.276Z,9.66
2023-02-04T03:16:32.860Z,9.63
2023-02-04T03:19:03.085Z,9.46
2023-02-04T03:21:29.654Z,9.50
2023-02-04T03:23:56.822Z,9.22
2023-02-04T03:26:24.962Z,9.13
2023-02-04T03:28:52.783Z,8.91
2023-02-04T03:31:19.426Z,9.00
2023-02-04T03:33:45.952Z,9.15
2023-02-04T03:36:12.520Z,9.61
2023-02-04T03:38:39.133Z,9.52
2023-02-04T03:41:06.047Z,9.30
2023-02-04T03:43:34.067Z,9.42
2023-02-04T03:46:00.720Z,9.04
2023-02-04T03:48:27.433Z,9.22
2023-02-04T03:50:53.927Z,9.03
2023-02-04T03:53:22.077Z,9.09
2023-02-04T03:55:48.553Z,9.26
2023-02-04T03:58:15.027Z,9.08
2023-02-04T04:00:41.504Z,9.40
2023-02-04T04:03:08.086Z,9.61
2023-02-04T04:05:34.984Z,9.01
2023-02-04T04:08:01.686Z,9.21
2023-02-04T04:10:29.450Z,8.81
2023-02-04T04:12:56.303Z,8.45
2023-02-04T04:15:22.933Z,9.32
2023-02-04T04:17:49.712Z,9.11
2023-02-04T04:20:16.413Z,9.55
2023-02-04T04:22:42.918Z,9.51
2023-02-04T04:25:09.461Z,9.68
2023-02-04T04:27:35.953Z,9.63
2023-02-04T04:30:03.156Z,9.75
2023-02-04T04:32:29.759Z,9.78
2023-02-04T04:34:56.260Z,8.72
2023-02-04T04:37:22.733Z,8.84
2023-02-04T04:39:49.437Z,8.59
2023-02-04T04:42:15.972Z,8.99
2023-02-04T04:44:42.810Z,9.33
2023-02-04T04:47:09.419Z,9.24
2023-02-04T04:49:35.897Z,9.02
2023-02-04T04:52:02.388Z,8.65
2023-02-04T04:54:28.842Z,9.27
2023-02-04T04:56:55.658Z,9.05
2023-02-04T04:59:22.220Z,9.71
2023-02-04T05:01:48.800Z,8.98
2023-02-04T05:04:15.319Z,8.78
2023-02-04T05:06:41.948Z,8.63
2023-02-04T05:09:09.711Z,8.30
2023-02-04T05:11:36.305Z,8.39
2023-02-04T05:14:02.850Z,9.14
2023-02-04T05:16:29.485Z,8.67
2023-02-04T05:18:56.463Z,8.96
2023-02-04T05:21:22.950Z,9.02
2023-02-04T05:23:49.396Z,9.07
2023-02-04T05:26:29.135Z,8.92
2023-02-04T05:28:56.241Z,8.99
2023-02-04T05:31:22.856Z,9.38
2023-02-04T05:33:49.486Z,9.62
2023-02-04T05:36:16.193Z,9.36
2023-02-04T05:38:42.687Z,9.55
2023-02-04T05:41:09.181Z,9.91
2023-02-04T05:43:36.131Z,9.98
2023-02-04T05:46:03.076Z,10.37
2023-02-04T05:48:29.594Z,9.77
2023-02-04T05:50:56.198Z,10.41
2023-02-04T05:53:22.665Z,10.22
2023-02-04T05:55:49.122Z,9.96
2023-02-04T05:58:15.590Z,9.75
2023-02-04T06:00:42.376Z,9.83
2023-02-04T06:03:09.127Z,10.02
2023-02-04T06:05:36.008Z,10.20
2023-02-04T06:08:02.557Z,9.80
2023-02-04T06:10:29.872Z,10.44
2023-02-04T06:12:56.572Z,10.64
2023-02-04T06:15:23.069Z,10.58
2023-02-04T06:17:49.546Z,10.55
2023-02-04T06:20:16.260Z,10.60
2023-02-04T06:22:43.024Z,10.01
2023-02-04T06:25:09.517Z,10.51
2023-02-04T06:27:36.191Z,10.56
2023-02-04T06:30:02.807Z,10.81
2023-02-04T06:32:29.372Z,10.92
2023-02-04T06:34:55.913Z,10.81
2023-02-04T06:37:24.304Z,10.95
2023-02-04T06:39:51.844Z,10.80
2023-02-04T06:42:18.429Z,11.00
2023-02-04T06:44:45.366Z,10.70
2023-02-04T06:47:12.014Z,10.72
2023-02-04T06:49:38.491Z,10.77
2023-02-04T06:52:05.717Z,10.90
2023-02-04T06:54:32.255Z,10.67
2023-02-04T06:57:06.456Z,10.94
2023-02-04T06:59:40.395Z,10.75
2023-02-04T07:02:08.124Z,10.50
2023-02-04T07:04:35.294Z,10.93
2023-02-04T07:07:01.939Z,10.93
2023-02-04T07:09:28.441Z,10.68
2023-02-04T07:11:55.010Z,11.06
2023-02-04T07:14:21.664Z,11.09
2023-02-04T07:16:48.187Z,10.92
2023-02-04T07:19:15.140Z,11.34
2023-02-04T07:21:41.708Z,11.35
2023-02-04T07:24:08.282Z,11.24
2023-02-04T07:26:34.834Z,11.51
2023-02-04T07:29:01.340Z,11.58
2023-02-04T07:31:28.070Z,11.58
2023-02-04T07:33:54.616Z,11.61
2023-02-04T07:36:21.284Z,11.25
2023-02-04T07:38:47.782Z,11.67
2023-02-04T07:41:14.265Z,11.66
2023-02-04T07:43:40.930Z,11.55
2023-02-04T07:46:07.469Z,11.67
2023-02-04T07:48:34.214Z,12.03
2023-02-04T07:51:00.793Z,11.98
2023-02-04T07:53:28.334Z,12.06
2023-02-04T07:55:54.908Z,12.23
2023-02-04T07:58:21.440Z,12.30
2023-02-04T08:00:47.912Z,12.31
2023-02-04T08:03:14.447Z,12.33
2023-02-04T08:05:40.913Z,12.34
2023-02-04T08:08:07.522Z,12.05
2023-02-04T08:10:34.454Z,11.72
2023-02-04T08:13:01.102Z,12.05
2023-02-04T08:15:27.731Z,12.24
2023-02-04T08:17:54.231Z,12.33
2023-02-04T08:20:20.740Z,12.85
2023-02-04T08:22:47.252Z,12.99
2023-02-04T08:25:13.898Z,13.34
2023-02-04T08:27:40.499Z,13.54
2023-02-04T08:30:07.920Z,13.38
2023-02-04T08:32:34.444Z,13.78
2023-02-04T08:35:01.148Z,13.75
2023-02-04T08:37:27.730Z,13.17
2023-02-04T08:39:54.464Z,13.58
2023-02-04T08:42:21.008Z,13.83
2023-02-04T08:44:47.537Z,13.56
2023-02-04T08:47:14.171Z,13.67
2023-02-04T08:49:40.828Z,13.28
2023-02-04T08:52:07.964Z,13.40
2023-02-04T08:54:35.040Z,13.57
2023-02-04T08:57:02.078Z,13.67
2023-02-04T08:59:28.621Z,13.75
2023-02-04T09:01:55.259Z,13.49
2023-02-04T09:04:23.322Z,13.84
2023-02-04T09:06:50.716Z,13.55
2023-02-04T09:09:17.807Z,13.51
2023-02-04T09:11:44.630Z,13.76
2023-02-04T09:14:11.454Z,13.67
2023-02-04T09:16:38.080Z,13.53
2023-02-04T09:19:05.516Z,13.58
2023-02-04T09:21:32.277Z,13.69
2023-02-04T09:23:58.858Z,14.09
2023-02-04T09:26:25.793Z,14.54
2023-02-04T09:28:52.373Z,15.01
2023-02-04T09:31:19.146Z,15.37
2023-02-04T09:33:45.853Z,16.05
2023-02-04T09:36:12.501Z,16.07
2023-02-04T09:38:39.069Z,16.10
2023-02-04T09:41:11.212Z,15.94
2023-02-04T09:43:43.270Z,15.99
2023-02-04T09:46:22.247Z,16.25
2023-02-04T09:48:49.559Z,17.03
2023-02-04T09:51:21.956Z,17.45
2023-02-04T09:53:49.003Z,17.51
2023-02-04T09:56:15.654Z,17.53
2023-02-04T09:58:42.507Z,17.13
2023-02-04T10:01:16.034Z,17.79
2023-02-04T10:03:47.620Z,18.04
2023-02-04T10:06:19.372Z,18.56
2023-02-04T10:08:47.709Z,18.67
2023-02-04T10:11:15.384Z,19.98
2023-02-04T10:13:50.205Z,23.31
2023-02-04T10:16:29.865Z,25.46
2023-02-04T10:19:04.712Z,26.16
2023-02-04T10:21:32.588Z,24.17
2023-02-04T10:24:00.821Z,23.26
2023-02-04T10:26:29.424Z,21.47
2023-02-04T10:29:33.037Z,22.71
2023-02-04T10:31:59.773Z,22.47
2023-02-04T10:34:38.192Z,21.33
2023-02-04T10:37:18.592Z,18.44
2023-02-04T10:39:45.064Z,15.25
2023-02-04T10:42:26.419Z,13.64
2023-02-04T10:44:53.315Z,13.74
2023-02-04T10:47:22.631Z,13.13
2023-02-04T10:50:16.028Z,13.76
2023-02-04T10:52:44.514Z,12.92
2023-02-04T10:55:14.940Z,13.32
2023-02-04T10:57:42.876Z,14.52
2023-02-04T11:00:16.016Z,16.01
2023-02-04T11:02:45.874Z,18.65
2023-02-04T11:05:18.696Z,21.45
2023-02-04T11:07:46.996Z,20.27
2023-02-04T11:10:19.131Z,20.61
2023-02-04T11:12:59.472Z,19.38
2023-02-04T11:15:50.772Z,20.33
2023-02-04T11:18:20.959Z,20.31
2023-02-04T11:20:49.109Z,20.42
2023-02-04T11:23:29.765Z,19.95
2023-02-04T11:26:10.104Z,19.47
2023-02-04T11:28:48.021Z,18.52
2023-02-04T11:31:27.056Z,17.82
2023-02-04T11:34:23.079Z,16.94
2023-02-04T11:36:56.252Z,17.01
2023-02-04T11:39:23.200Z,16.80
2023-02-04T11:41:49.869Z,17.29
2023-02-04T11:44:17.364Z,17.53
2023-02-04T11:46:44.011Z,17.48
2023-02-04T11:49:17.962Z,17.68
2023-02-04T11:51:47.295Z,17.49
2023-02-04T11:54:17.134Z,17.20
2023-02-04T11:56:43.588Z,17.25
2023-02-04T11:59:12.119Z,16.85
2023-02-04T12:01:39.072Z,16.97
2023-02-04T12:04:08.328Z,16.76
2023-02-04T12:06:36.728Z,15.62
2023-02-04T12:09:24.321Z,14.03
2023-02-04T12:12:04.460Z,13.67
2023-02-04T12:14:36.794Z,13.28
2023-02-04T12:17:20.370Z,13.18
2023-02-04T12:19:46.883Z,13.36
2023-02-04T12:22:14.757Z,12.80
2023-02-04T12:24:41.635Z,13.11
2023-02-04T12:27:08.179Z,12.50
2023-02-04T12:29:34.627Z,11.71
2023-02-04T12:32:01.193Z,11.39
2023-02-04T12:34:28.217Z,12.00
2023-02-04T12:36:54.692Z,12.30
2023-02-04T12:39:21.179Z,12.51
2023-02-04T12:41:47.940Z,12.44
2023-02-04T12:44:15.338Z,12.46
2023-02-04T12:46:41.945Z,12.74
2023-02-04T12:49:09.710Z,12.61
2023-02-04T12:51:36.465Z,12.42
2023-02-04T12:54:03.006Z,13.80
2023-02-04T12:56:29.490Z,14.79
2023-02-04T12:58:56.044Z,15.02
2023-02-04T13:01:22.578Z,15.45
2023-02-04T13:03:49.127Z,16.17
2023-02-04T13:06:15.626Z,16.45
2023-02-04T13:08:42.624Z,16.68
2023-02-04T13:11:09.150Z,16.75
2023-02-04T13:13:35.622Z,16.20
2023-02-04T13:16:02.181Z,15.47
2023-02-04T13:18:28.816Z,15.77
2023-02-04T13:20:55.289Z,15.90
2023-02-04T13:23:21.811Z,15.85
2023-02-04T13:25:48.425Z,15.18
2023-02-04T13:28:15.014Z,14.95
2023-02-04T13:30:41.574Z,14.68
2023-02-04T13:33:08.158Z,14.22
2023-02-04T13:35:35.007Z,15.25
2023-02-04T13:38:01.834Z,15.29
2023-02-04T13:40:28.448Z,14.85
2023-02-04T13:42:55.021Z,15.17
2023-02-04T13:45:21.892Z,15.28
2023-02-04T13:47:48.816Z,14.98
2023-02-04T13:50:16.745Z,13.84
2023-02-04T13:52:43.320Z,14.85
2023-02-04T13:55:09.908Z,14.37
2023-02-04T13:57:37.842Z,14.81
2023-02-04T14:00:07.284Z,15.18
2023-02-04T14:02:34.395Z,12.99
2023-02-04T14:05:01.688Z,14.26
2023-02-04T14:07:28.378Z,13.79
2023-02-04T14:09:54.882Z,12.95
2023-02-04T14:12:21.397Z,12.73
2023-02-04T14:14:48.243Z,13.01
2023-02-04T14:17:14.733Z,12.82
2023-02-04T14:19:41.271Z,13.20
2023-02-04T14:22:07.903Z,12.96
2023-02-04T14:24:35.182Z,13.46
2023-02-04T14:27:07.269Z,13.48
2023-02-04T14:29:36.652Z,13.14
2023-02-04T14:32:04.661Z,12.56
2023-02-04T14:34:31.427Z,12.73
2023-02-04T14:36:58.196Z,13.14
2023-02-04T14:39:24.983Z,12.11
2023-02-04T14:41:51.500Z,12.57
2023-02-04T14:44:20.680Z,13.17
2023-02-04T14:46:48.857Z,12.83
2023-02-04T14:49:16.688Z,12.46
2023-02-04T14:51:43.603Z,12.57
2023-02-04T14:54:11.477Z,11.84
2023-02-04T14:56:38.926Z,12.27
2023-02-04T14:59:05.649Z,12.13
2023-02-04T15:01:32.646Z,11.98
2023-02-04T15:03:59.814Z,12.61
2023-02-04T15:06:26.886Z,12.80
2023-02-04T15:08:53.914Z,12.22
2023-02-04T15:11:20.570Z,12.44
2023-02-04T15:13:47.292Z,12.74
2023-02-04T15:16:14.912Z,12.67
2023-02-04T15:18:41.879Z,12.69
2023-02-04T15:21:09.063Z,12.65
2023-02-04T15:23:36.044Z,12.12
2023-02-04T15:26:03.625Z,11.45
2023-02-04T15:28:31.404Z,12.34
2023-02-04T15:30:58.440Z,12.45
2023-02-04T15:33:25.111Z,12.31
2023-02-04T15:35:51.805Z,12.69
2023-02-04T15:38:18.496Z,12.43
2023-02-04T15:40:45.153Z,12.77
2023-02-04T15:43:11.788Z,12.45
2023-02-04T15:45:41.373Z,12.56
2023-02-04T15:48:08.487Z,12.33
2023-02-04T15:50:35.259Z,11.88
2023-02-04T15:53:01.835Z,11.30
2023-02-04T15:55:28.669Z,11.54
2023-02-04T15:57:55.408Z,11.52
2023-02-04T16:00:22.929Z,11.27
2023-02-04T16:02:50.274Z,11.57
2023-02-04T16:05:17.167Z,10.96
2023-02-04T16:07:43.867Z,11.48
2023-02-04T16:10:10.972Z,10.66
2023-02-04T16:12:38.432Z,11.34
2023-02-04T16:15:05.459Z,10.47
2023-02-04T16:17:32.099Z,11.20
2023-02-04T16:19:58.764Z,11.32
2023-02-04T16:22:25.454Z,11.05
2023-02-04T16:24:52.890Z,10.87
2023-02-04T16:27:19.984Z,11.03
2023-02-04T16:29:46.624Z,11.10
2023-02-04T16:32:13.851Z,11.15
2023-02-04T16:34:40.614Z,10.99
2023-02-04T16:37:07.659Z,11.24
2023-02-04T16:39:34.322Z,11.07
2023-02-04T16:42:01.291Z,11.07
2023-02-04T16:44:27.928Z,10.95
2023-02-04T16:46:55.061Z,11.25
2023-02-04T16:49:22.279Z,11.27
2023-02-04T16:51:49.154Z,11.00
2023-02-04T16:54:15.848Z,10.94
2023-02-04T16:56:42.446Z,11.11
2023-02-04T16:59:09.416Z,11.05
2023-02-04T17:01:36.619Z,11.00
2023-02-04T17:04:03.512Z,10.98
2023-02-04T17:06:32.118Z,10.86
2023-02-04T17:08:58.945Z,10.87
2023-02-04T17:11:28.971Z,10.79
2023-02-04T17:14:00.876Z,10.42
2023-02-04T17:16:27.610Z,10.75
2023-02-04T17:18:57.686Z,10.70
2023-02-04T17:21:25.601Z,10.69
2023-02-04T17:23:52.629Z,10.65
2023-02-04T17:26:19.458Z,10.55
2023-02-04T17:28:46.020Z,10.44
2023-02-04T17:31:12.879Z,10.56
2023-02-04T17:33:39.840Z,10.23
2023-02-04T17:36:07.113Z,10.48
2023-02-04T17:38:33.793Z,10.16
2023-02-04T17:41:01.225Z,10.53
2023-02-04T17:43:27.720Z,10.54
2023-02-04T17:45:54.202Z,10.51
2023-02-04T17:48:20.656Z,10.19
2023-02-04T17:50:47.216Z,10.31
2023-02-04T17:53:13.792Z,10.19
2023-02-04T17:55:40.547Z,10.40
2023-02-04T17:58:16.067Z,10.08
2023-02-04T18:00:47.036Z,10.19
2023-02-04T18:03:16.866Z,10.30
2023-02-04T18:05:46.015Z,10.11
2023-02-04T18:08:16.720Z,10.22
2023-02-04T18:10:45.442Z,10.12
2023-02-04T18:13:23.405Z,10.21
2023-02-04T18:15:51.778Z,10.30
2023-02-04T18:18:24.000Z,10.41
2023-02-04T18:21:02.958Z,10.38
2023-02-04T18:23:30.622Z,10.39
2023-02-04T18:26:10.802Z,10.45
2023-02-04T18:28:45.649Z,10.35
2023-02-04T18:31:37.942Z,10.35
2023-02-04T18:34:16.815Z,10.54
2023-02-04T18:36:43.276Z,10.54
2023-02-04T18:39:24.564Z,10.54
2023-02-04T18:41:51.864Z,10.45
2023-02-04T18:44:30.507Z,10.58
2023-02-04T18:46:57.286Z,10.47
2023-02-04T18:49:42.453Z,10.44
2023-02-04T18:52:20.270Z,10.31
2023-02-04T18:54:58.177Z,10.41
2023-02-04T18:57:39.298Z,10.47
2023-02-04T19:00:09.150Z,10.45
2023-02-04T19:02:42.592Z,10.28
2023-02-04T19:05:34.120Z,10.52
2023-02-04T19:08:03.822Z,10.59
2023-02-04T19:10:34.544Z,10.59
2023-02-04T19:13:17.354Z,10.48
2023-02-04T19:15:44.602Z,10.49
2023-02-04T19:18:22.385Z,10.39
2023-02-04T19:20:49.371Z,9.77
2023-02-04T19:23:19.518Z,9.98
2023-02-04T19:25:48.084Z,9.57
2023-02-04T19:28:24.990Z,9.43
2023-02-04T19:30:58.237Z,9.70
2023-02-04T19:33:32.954Z,9.59
2023-02-04T19:36:02.604Z,9.31
2023-02-04T19:38:45.066Z,9.24
2023-02-04T19:41:21.089Z,9.37
2023-02-04T19:43:47.707Z,9.41
2023-02-04T19:46:23.964Z,9.38
2023-02-04T19:48:51.277Z,9.48
2023-02-04T19:51:17.891Z,9.44
2023-02-04T19:53:46.976Z,9.26
2023-02-04T19:56:32.121Z,9.28
2023-02-04T19:59:06.169Z,9.17
2023-02-04T20:01:33.471Z,9.09
2023-02-04T20:04:02.852Z,9.09
2023-02-04T20:06:32.832Z,9.08
2023-02-04T20:09:16.633Z,9.14
2023-02-04T20:12:09.946Z,9.18
2023-02-04T20:14:55.177Z,9.03
2023-02-04T20:17:27.003Z,8.91
2023-02-04T20:19:53.539Z,8.62
2023-02-04T20:22:22.093Z,8.80
2023-02-04T20:24:56.893Z,8.86
2023-02-04T20:27:29.362Z,8.78
2023-02-04T20:30:01.865Z,8.59
2023-02-04T20:32:30.092Z,8.70
2023-02-04T20:35:19.645Z,8.80
2023-02-04T20:37:50.103Z,8.56
2023-02-04T20:40:19.495Z,8.71
2023-02-04T20:42:46.931Z,8.65
2023-02-04T20:45:33.020Z,8.47
2023-02-04T20:48:20.026Z,8.55
2023-02-04T20:50:54.725Z,8.50
2023-02-04T20:53:21.251Z,8.46
2023-02-04T20:55:52.129Z,8.28
2023-02-04T20:58:23.390Z,8.38
2023-02-04T21:00:52.536Z,8.27
2023-02-04T21:03:22.031Z,8.33
2023-02-04T21:05:50.254Z,8.14
2023-02-04T21:08:29.510Z,8.35
2023-02-04T21:10:57.367Z,8.28
2023-02-04T21:13:24.652Z,8.28
2023-02-04T21:15:51.565Z,8.41
2023-02-04T21:18:18.696Z,8.35
2023-02-04T21:20:45.215Z,8.26
2023-02-04T21:23:11.919Z,8.46
2023-02-04T21:25:38.636Z,8.31
2023-02-04T21:28:06.188Z,8.32
2023-02-04T21:30:32.842Z,8.68
2023-02-04T21:33:00.149Z,8.78
2023-02-04T21:35:26.762Z,8.48
2023-02-04T21:37:54.521Z,8.90
2023-02-04T21:40:22.084Z,8.79
2023-02-04T21:42:52.167Z,8.98
2023-02-04T21:45:20.113Z,8.79
2023-02-04T21:47:47.818Z,9.01
2023-02-04T21:50:15.459Z,8.95
2023-02-04T21:52:42.632Z,9.04
2023-02-04T21:55:10.477Z,8.92
2023-02-04T21:57:37.099Z,8.94
2023-02-04T22:00:05.978Z,9.07
2023-02-04T22:02:32.513Z,8.97
2023-02-04T22:04:59.143Z,9.02
2023-02-04T22:07:25.892Z,9.34
2023-02-04T22:09:52.517Z,9.37
2023-02-04T22:12:19.706Z,9.39
2023-02-04T22:14:46.223Z,9.36
2023-02-04T22:17:12.727Z,8.97
2023-02-04T22:19:39.248Z,9.05
2023-02-04T22:22:05.759Z,9.28
2023-02-04T22:24:32.209Z,9.21
2023-02-04T22:26:59.359Z,9.29
2023-02-04T22:29:29.863Z,8.98
2023-02-04T22:31:56.650Z,8.94
2023-02-04T22:34:23.181Z,9.01
2023-02-04T22:36:49.694Z,9.21
2023-02-04T22:39:16.172Z,9.29
2023-02-04T22:41:42.878Z,9.37
2023-02-04T22:44:09.414Z,9.07
2023-02-04T22:46:36.011Z,8.77
2023-02-04T22:49:02.825Z,8.66
2023-02-04T22:51:29.352Z,8.97
2023-02-04T22:53:56.170Z,8.73
2023-02-04T22:56:22.723Z,8.85
2023-02-04T22:58:50.192Z,8.90
2023-02-04T23:01:17.452Z,9.05
2023-02-04T23:03:44.000Z,9.14
2023-02-04T23:06:10.619Z,9.17
2023-02-04T23:08:37.217Z,9.22
2023-02-04T23:11:04.036Z,9.22
2023-02-04T23:13:30.680Z,9.13
2023-02-04T23:15:57.204Z,9.38
2023-02-04T23:18:23.716Z,9.44
2023-02-04T23:20:50.236Z,9.44
2023-02-04T23:23:19.645Z,9.49
2023-02-04T23:25:47.011Z,9.11
2023-02-04T23:28:14.913Z,9.21
2023-02-04T23:30:41.622Z,8.90
2023-02-04T23:33:08.719Z,9.26
2023-02-04T23:35:35.574Z,9.28
2023-02-04T23:38:02.911Z,8.95
2023-02-04T23:40:29.420Z,8.69
2023-02-04T23:42:55.968Z,8.87
2023-02-04T23:45:22.690Z,8.77
2023-02-04T23:47:49.296Z,8.75
2023-02-04T23:50:16.471Z,9.00
2023-02-04T23:52:43.425Z,8.91
2023-02-04T23:55:09.977Z,8.77
2023-02-04T23:57:36.517Z,8.49
